sensor_id;sensor_type;location;lat;lon;timestamp;P1;durP1;ratioP1;P2;durP2;ratioP2
1436;SDS011;712;51.026;13.792;2023-07-30T00:00:57;7.33;;;3.03;;
1436;SDS011;712;51.026;13.792;2023-07-30T00:03:22;4.80;;;2.60;;
1436;SDS011;712;51.026;13.792;2023-07-30T00:05:51;6.33;;;2.77;;
1436;SDS011;712;51.026;13.792;2023-07-30T00:08:16;6.60;;;2.95;;
1436;SDS011;712;51.026;13.792;2023-07-30T00:10:41;6.27;;;2.70;;
1436;SDS011;712;51.026;13.792;2023-07-30T00:13:07;5.35;;;2.58;;
1436;SDS011;712;51.026;13.792;2023-07-30T00:15:32;7.30;;;2.77;;
1436;SDS011;712;51.026;13.792;2023-07-30T00:17:57;5.50;;;3.00;;
1436;SDS011;712;51.026;13.792;2023-07-30T00:20:22;6.18;;;2.83;;
1436;SDS011;712;51.026;13.792;2023-07-30T00:22:47;7.20;;;2.73;;
1436;SDS011;712;51.026;13.792;2023-07-30T00:25:12;7.57;;;2.70;;
1436;SDS011;712;51.026;13.792;2023-07-30T00:27:38;5.97;;;2.63;;
1436;SDS011;712;51.026;13.792;2023-07-30T00:30:03;5.00;;;2.20;;
1436;SDS011;712;51.026;13.792;2023-07-30T00:32:28;7.45;;;2.58;;
1436;SDS011;712;51.026;13.792;2023-07-30T00:34:53;4.63;;;2.43;;
1436;SDS011;712;51.026;13.792;2023-07-30T00:37:19;6.40;;;2.42;;
1436;SDS011;712;51.026;13.792;2023-07-30T00:39:44;4.57;;;2.20;;
1436;SDS011;712;51.026;13.792;2023-07-30T00:42:09;4.85;;;2.22;;
1436;SDS011;712;51.026;13.792;2023-07-30T00:44:34;6.72;;;2.17;;
1436;SDS011;712;51.026;13.792;2023-07-30T00:46:59;5.43;;;2.10;;
1436;SDS011;712;51.026;13.792;2023-07-30T00:49:24;8.80;;;2.40;;
1436;SDS011;712;51.026;13.792;2023-07-30T00:51:49;5.23;;;2.20;;
1436;SDS011;712;51.026;13.792;2023-07-30T00:54:15;4.40;;;2.30;;
1436;SDS011;712;51.026;13.792;2023-07-30T00:56:41;4.93;;;2.20;;
1436;SDS011;712;51.026;13.792;2023-07-30T00:59:10;5.43;;;2.28;;
1436;SDS011;712;51.026;13.792;2023-07-30T01:01:35;5.97;;;2.37;;
1436;SDS011;712;51.026;13.792;2023-07-30T01:04:02;4.03;;;1.92;;
1436;SDS011;712;51.026;13.792;2023-07-30T01:06:27;6.43;;;2.20;;
1436;SDS011;712;51.026;13.792;2023-07-30T01:08:52;6.10;;;2.53;;
1436;SDS011;712;51.026;13.792;2023-07-30T01:11:17;5.70;;;2.37;;
1436;SDS011;712;51.026;13.792;2023-07-30T01:13:43;7.07;;;2.00;;
1436;SDS011;712;51.026;13.792;2023-07-30T01:16:08;4.65;;;2.10;;
1436;SDS011;712;51.026;13.792;2023-07-30T01:18:34;8.30;;;2.20;;
1436;SDS011;712;51.026;13.792;2023-07-30T01:20:59;7.63;;;2.30;;
1436;SDS011;712;51.026;13.792;2023-07-30T01:23:25;9.33;;;2.37;;
1436;SDS011;712;51.026;13.792;2023-07-30T01:25:55;5.53;;;1.90;;
1436;SDS011;712;51.026;13.792;2023-07-30T01:28:22;6.15;;;1.92;;
1436;SDS011;712;51.026;13.792;2023-07-30T01:30:47;5.90;;;2.57;;
1436;SDS011;712;51.026;13.792;2023-07-30T01:33:13;6.32;;;2.20;;
1436;SDS011;712;51.026;13.792;2023-07-30T01:35:39;5.70;;;2.17;;
1436;SDS011;712;51.026;13.792;2023-07-30T01:38:06;6.10;;;2.10;;
1436;SDS011;712;51.026;13.792;2023-07-30T01:40:32;4.22;;;2.00;;
1436;SDS011;712;51.026;13.792;2023-07-30T01:42:58;4.63;;;2.00;;
1436;SDS011;712;51.026;13.792;2023-07-30T01:45:23;5.65;;;2.20;;
1436;SDS011;712;51.026;13.792;2023-07-30T01:47:48;4.83;;;1.90;;
1436;SDS011;712;51.026;13.792;2023-07-30T01:50:13;5.60;;;1.80;;
1436;SDS011;712;51.026;13.792;2023-07-30T01:52:38;4.77;;;2.50;;
1436;SDS011;712;51.026;13.792;2023-07-30T01:55:04;4.82;;;2.30;;
1436;SDS011;712;51.026;13.792;2023-07-30T01:57:29;4.72;;;2.40;;
1436;SDS011;712;51.026;13.792;2023-07-30T01:59:54;5.77;;;2.07;;
1436;SDS011;712;51.026;13.792;2023-07-30T02:02:19;5.10;;;2.00;;
1436;SDS011;712;51.026;13.792;2023-07-30T02:04:44;6.40;;;2.35;;
1436;SDS011;712;51.026;13.792;2023-07-30T02:07:09;6.43;;;2.13;;
1436;SDS011;712;51.026;13.792;2023-07-30T02:09:35;6.10;;;2.00;;
1436;SDS011;712;51.026;13.792;2023-07-30T02:12:00;5.07;;;2.08;;
1436;SDS011;712;51.026;13.792;2023-07-30T02:14:25;3.90;;;1.63;;
1436;SDS011;712;51.026;13.792;2023-07-30T02:16:50;4.03;;;1.73;;
1436;SDS011;712;51.026;13.792;2023-07-30T02:19:15;3.90;;;2.07;;
1436;SDS011;712;51.026;13.792;2023-07-30T02:21:40;4.65;;;1.88;;
1436;SDS011;712;51.026;13.792;2023-07-30T02:24:08;5.13;;;2.10;;
1436;SDS011;712;51.026;13.792;2023-07-30T02:26:35;4.95;;;2.33;;
1436;SDS011;712;51.026;13.792;2023-07-30T02:29:00;4.30;;;2.27;;
1436;SDS011;712;51.026;13.792;2023-07-30T02:31:25;5.27;;;2.00;;
1436;SDS011;712;51.026;13.792;2023-07-30T02:33:50;5.65;;;2.50;;
1436;SDS011;712;51.026;13.792;2023-07-30T02:36:15;5.40;;;2.17;;
1436;SDS011;712;51.026;13.792;2023-07-30T02:38:40;5.65;;;1.98;;
1436;SDS011;712;51.026;13.792;2023-07-30T02:41:06;5.40;;;2.30;;
1436;SDS011;712;51.026;13.792;2023-07-30T02:43:31;5.40;;;2.28;;
1436;SDS011;712;51.026;13.792;2023-07-30T02:45:56;4.75;;;2.42;;
1436;SDS011;712;51.026;13.792;2023-07-30T02:48:21;6.68;;;2.92;;
1436;SDS011;712;51.026;13.792;2023-07-30T02:50:46;5.07;;;2.37;;
1436;SDS011;712;51.026;13.792;2023-07-30T02:53:11;6.45;;;2.60;;
1436;SDS011;712;51.026;13.792;2023-07-30T02:55:36;4.45;;;2.20;;
1436;SDS011;712;51.026;13.792;2023-07-30T02:58:02;4.70;;;2.50;;
1436;SDS011;712;51.026;13.792;2023-07-30T03:00:27;6.30;;;2.72;;
1436;SDS011;712;51.026;13.792;2023-07-30T03:02:52;5.50;;;2.30;;
1436;SDS011;712;51.026;13.792;2023-07-30T03:05:17;5.17;;;2.47;;
1436;SDS011;712;51.026;13.792;2023-07-30T03:07:42;6.00;;;2.30;;
1436;SDS011;712;51.026;13.792;2023-07-30T03:10:07;4.82;;;2.40;;
1436;SDS011;712;51.026;13.792;2023-07-30T03:12:33;7.10;;;2.70;;
1436;SDS011;712;51.026;13.792;2023-07-30T03:15:01;4.65;;;2.50;;
1436;SDS011;712;51.026;13.792;2023-07-30T03:17:26;6.13;;;2.83;;
1436;SDS011;712;51.026;13.792;2023-07-30T03:19:51;8.17;;;3.00;;
1436;SDS011;712;51.026;13.792;2023-07-30T03:22:16;5.43;;;2.77;;
1436;SDS011;712;51.026;13.792;2023-07-30T03:24:41;5.90;;;2.70;;
1436;SDS011;712;51.026;13.792;2023-07-30T03:27:06;7.47;;;2.95;;
1436;SDS011;712;51.026;13.792;2023-07-30T03:29:32;7.07;;;3.50;;
1436;SDS011;712;51.026;13.792;2023-07-30T03:31:57;4.57;;;2.53;;
1436;SDS011;712;51.026;13.792;2023-07-30T03:34:22;6.13;;;3.30;;
1436;SDS011;712;51.026;13.792;2023-07-30T03:36:47;7.50;;;3.03;;
1436;SDS011;712;51.026;13.792;2023-07-30T03:39:12;6.70;;;3.13;;
1436;SDS011;712;51.026;13.792;2023-07-30T03:41:38;4.97;;;2.90;;
1436;SDS011;712;51.026;13.792;2023-07-30T03:44:03;5.57;;;2.85;;
1436;SDS011;712;51.026;13.792;2023-07-30T03:46:28;5.80;;;3.17;;
1436;SDS011;712;51.026;13.792;2023-07-30T03:48:53;5.93;;;2.90;;
1436;SDS011;712;51.026;13.792;2023-07-30T03:51:18;6.73;;;2.67;;
1436;SDS011;712;51.026;13.792;2023-07-30T03:53:43;6.03;;;3.20;;
1436;SDS011;712;51.026;13.792;2023-07-30T03:56:09;6.30;;;3.00;;
1436;SDS011;712;51.026;13.792;2023-07-30T03:58:34;5.43;;;2.80;;
1436;SDS011;712;51.026;13.792;2023-07-30T04:01:00;5.03;;;2.83;;
1436;SDS011;712;51.026;13.792;2023-07-30T04:03:25;5.20;;;2.80;;
1436;SDS011;712;51.026;13.792;2023-07-30T04:05:51;5.72;;;2.80;;
1436;SDS011;712;51.026;13.792;2023-07-30T04:08:16;4.57;;;2.50;;
1436;SDS011;712;51.026;13.792;2023-07-30T04:10:41;6.75;;;2.90;;
1436;SDS011;712;51.026;13.792;2023-07-30T04:13:06;6.23;;;2.80;;
1436;SDS011;712;51.026;13.792;2023-07-30T04:17:57;4.95;;;2.45;;
1436;SDS011;712;51.026;13.792;2023-07-30T04:20:23;5.47;;;2.70;;
1436;SDS011;712;51.026;13.792;2023-07-30T04:22:48;6.97;;;2.90;;
1436;SDS011;712;51.026;13.792;2023-07-30T04:25:13;6.00;;;3.07;;
1436;SDS011;712;51.026;13.792;2023-07-30T04:27:38;5.97;;;2.63;;
1436;SDS011;712;51.026;13.792;2023-07-30T04:30:07;6.17;;;3.27;;
1436;SDS011;712;51.026;13.792;2023-07-30T04:32:32;7.47;;;3.30;;
1436;SDS011;712;51.026;13.792;2023-07-30T04:34:57;6.82;;;3.15;;
1436;SDS011;712;51.026;13.792;2023-07-30T04:37:22;8.38;;;3.25;;
1436;SDS011;712;51.026;13.792;2023-07-30T04:39:49;5.75;;;3.33;;
1436;SDS011;712;51.026;13.792;2023-07-30T04:42:14;6.15;;;3.08;;
1436;SDS011;712;51.026;13.792;2023-07-30T04:44:40;7.07;;;3.60;;
1436;SDS011;712;51.026;13.792;2023-07-30T04:47:05;6.20;;;3.60;;
1436;SDS011;712;51.026;13.792;2023-07-30T04:49:30;6.20;;;3.40;;
1436;SDS011;712;51.026;13.792;2023-07-30T04:51:56;5.27;;;2.97;;
1436;SDS011;712;51.026;13.792;2023-07-30T04:54:21;5.95;;;3.45;;
1436;SDS011;712;51.026;13.792;2023-07-30T04:56:46;6.05;;;3.08;;
1436;SDS011;712;51.026;13.792;2023-07-30T04:59:11;5.10;;;2.70;;
1436;SDS011;712;51.026;13.792;2023-07-30T05:01:36;6.10;;;3.00;;
1436;SDS011;712;51.026;13.792;2023-07-30T05:04:01;7.88;;;3.78;;
1436;SDS011;712;51.026;13.792;2023-07-30T05:06:27;7.00;;;3.70;;
1436;SDS011;712;51.026;13.792;2023-07-30T05:08:52;8.00;;;2.83;;
1436;SDS011;712;51.026;13.792;2023-07-30T05:11:17;7.43;;;3.47;;
1436;SDS011;712;51.026;13.792;2023-07-30T05:13:42;6.20;;;3.20;;
1436;SDS011;712;51.026;13.792;2023-07-30T05:16:07;6.70;;;3.03;;
1436;SDS011;712;51.026;13.792;2023-07-30T05:18:33;4.45;;;2.40;;
1436;SDS011;712;51.026;13.792;2023-07-30T05:20:58;5.22;;;2.60;;
1436;SDS011;712;51.026;13.792;2023-07-30T05:23:23;4.30;;;2.33;;
1436;SDS011;712;51.026;13.792;2023-07-30T05:25:49;7.13;;;3.10;;
1436;SDS011;712;51.026;13.792;2023-07-30T05:28:14;6.50;;;2.20;;
1436;SDS011;712;51.026;13.792;2023-07-30T05:30:39;4.70;;;2.57;;
1436;SDS011;712;51.026;13.792;2023-07-30T05:33:04;7.73;;;3.00;;
1436;SDS011;712;51.026;13.792;2023-07-30T05:35:29;4.80;;;2.70;;
1436;SDS011;712;51.026;13.792;2023-07-30T05:37:54;6.50;;;2.50;;
1436;SDS011;712;51.026;13.792;2023-07-30T05:40:20;6.35;;;2.90;;
1436;SDS011;712;51.026;13.792;2023-07-30T05:42:45;6.80;;;2.95;;
1436;SDS011;712;51.026;13.792;2023-07-30T05:45:11;8.82;;;3.10;;
1436;SDS011;712;51.026;13.792;2023-07-30T05:47:37;4.75;;;2.78;;
1436;SDS011;712;51.026;13.792;2023-07-30T05:50:02;5.32;;;2.67;;
1436;SDS011;712;51.026;13.792;2023-07-30T05:52:27;5.97;;;3.03;;
1436;SDS011;712;51.026;13.792;2023-07-30T05:54:52;5.80;;;3.10;;
1436;SDS011;712;51.026;13.792;2023-07-30T05:57:17;6.03;;;2.80;;
1436;SDS011;712;51.026;13.792;2023-07-30T05:59:42;4.65;;;2.60;;
1436;SDS011;712;51.026;13.792;2023-07-30T06:02:08;5.03;;;2.47;;
1436;SDS011;712;51.026;13.792;2023-07-30T06:04:33;5.18;;;2.65;;
1436;SDS011;712;51.026;13.792;2023-07-30T06:07:01;5.28;;;2.80;;
1436;SDS011;712;51.026;13.792;2023-07-30T06:09:27;6.85;;;2.70;;
1436;SDS011;712;51.026;13.792;2023-07-30T06:11:52;7.13;;;2.80;;
1436;SDS011;712;51.026;13.792;2023-07-30T06:14:18;5.60;;;2.50;;
1436;SDS011;712;51.026;13.792;2023-07-30T06:16:43;6.03;;;2.13;;
1436;SDS011;712;51.026;13.792;2023-07-30T06:19:09;5.63;;;2.50;;
1436;SDS011;712;51.026;13.792;2023-07-30T06:21:34;6.50;;;2.50;;
1436;SDS011;712;51.026;13.792;2023-07-30T06:23:59;6.07;;;2.73;;
1436;SDS011;712;51.026;13.792;2023-07-30T06:26:24;4.45;;;2.15;;
1436;SDS011;712;51.026;13.792;2023-07-30T06:28:50;8.75;;;2.85;;
1436;SDS011;712;51.026;13.792;2023-07-30T06:31:15;4.80;;;2.10;;
1436;SDS011;712;51.026;13.792;2023-07-30T06:33:40;4.63;;;2.10;;
1436;SDS011;712;51.026;13.792;2023-07-30T06:36:05;4.30;;;2.50;;
1436;SDS011;712;51.026;13.792;2023-07-30T06:38:30;4.97;;;2.20;;
1436;SDS011;712;51.026;13.792;2023-07-30T06:40:55;4.75;;;2.30;;
1436;SDS011;712;51.026;13.792;2023-07-30T06:43:22;7.65;;;2.63;;
1436;SDS011;712;51.026;13.792;2023-07-30T06:45:47;3.60;;;1.73;;
1436;SDS011;712;51.026;13.792;2023-07-30T06:48:13;4.70;;;2.40;;
1436;SDS011;712;51.026;13.792;2023-07-30T06:50:38;4.57;;;1.95;;
1436;SDS011;712;51.026;13.792;2023-07-30T06:53:03;4.10;;;1.85;;
1436;SDS011;712;51.026;13.792;2023-07-30T06:55:28;4.23;;;1.97;;
1436;SDS011;712;51.026;13.792;2023-07-30T06:57:53;4.82;;;2.13;;
1436;SDS011;712;51.026;13.792;2023-07-30T07:00:19;5.05;;;2.20;;
1436;SDS011;712;51.026;13.792;2023-07-30T07:02:47;4.20;;;2.17;;
1436;SDS011;712;51.026;13.792;2023-07-30T07:05:12;5.05;;;2.22;;
1436;SDS011;712;51.026;13.792;2023-07-30T07:07:37;6.50;;;2.40;;
1436;SDS011;712;51.026;13.792;2023-07-30T07:10:02;4.30;;;2.20;;
1436;SDS011;712;51.026;13.792;2023-07-30T07:12:27;4.30;;;1.97;;
1436;SDS011;712;51.026;13.792;2023-07-30T07:14:53;4.18;;;1.92;;
1436;SDS011;712;51.026;13.792;2023-07-30T07:17:18;6.27;;;2.20;;
1436;SDS011;712;51.026;13.792;2023-07-30T07:19:43;7.00;;;2.00;;
1436;SDS011;712;51.026;13.792;2023-07-30T07:22:08;4.32;;;1.92;;
1436;SDS011;712;51.026;13.792;2023-07-30T07:24:33;7.67;;;2.87;;
1436;SDS011;712;51.026;13.792;2023-07-30T07:26:59;5.97;;;2.10;;
1436;SDS011;712;51.026;13.792;2023-07-30T07:29:24;4.87;;;2.30;;
1436;SDS011;712;51.026;13.792;2023-07-30T07:31:49;5.40;;;2.30;;
1436;SDS011;712;51.026;13.792;2023-07-30T07:34:14;6.95;;;2.22;;
1436;SDS011;712;51.026;13.792;2023-07-30T07:36:39;5.23;;;2.30;;
1436;SDS011;712;51.026;13.792;2023-07-30T07:39:04;5.27;;;1.93;;
1436;SDS011;712;51.026;13.792;2023-07-30T07:41:30;5.67;;;2.13;;
1436;SDS011;712;51.026;13.792;2023-07-30T07:43:55;4.72;;;2.00;;
1436;SDS011;712;51.026;13.792;2023-07-30T07:46:21;4.83;;;2.07;;
1436;SDS011;712;51.026;13.792;2023-07-30T07:48:46;4.00;;;2.15;;
1436;SDS011;712;51.026;13.792;2023-07-30T07:51:11;4.35;;;1.90;;
1436;SDS011;712;51.026;13.792;2023-07-30T07:53:37;4.70;;;2.13;;
1436;SDS011;712;51.026;13.792;2023-07-30T07:56:02;4.18;;;2.20;;
1436;SDS011;712;51.026;13.792;2023-07-30T07:58:27;5.13;;;1.90;;
1436;SDS011;712;51.026;13.792;2023-07-30T08:00:56;4.00;;;2.00;;
1436;SDS011;712;51.026;13.792;2023-07-30T08:03:22;5.05;;;2.10;;
1436;SDS011;712;51.026;13.792;2023-07-30T08:05:47;5.55;;;1.80;;
1436;SDS011;712;51.026;13.792;2023-07-30T08:08:12;4.55;;;1.80;;
1436;SDS011;712;51.026;13.792;2023-07-30T08:10:38;4.80;;;2.13;;
1436;SDS011;712;51.026;13.792;2023-07-30T08:13:03;4.93;;;2.03;;
1436;SDS011;712;51.026;13.792;2023-07-30T08:15:28;8.90;;;2.27;;
1436;SDS011;712;51.026;13.792;2023-07-30T08:17:53;4.40;;;2.08;;
1436;SDS011;712;51.026;13.792;2023-07-30T08:20:18;4.20;;;2.00;;
1436;SDS011;712;51.026;13.792;2023-07-30T08:22:44;4.97;;;1.90;;
1436;SDS011;712;51.026;13.792;2023-07-30T08:25:09;4.50;;;2.10;;
1436;SDS011;712;51.026;13.792;2023-07-30T08:27:34;4.23;;;1.90;;
1436;SDS011;712;51.026;13.792;2023-07-30T08:29:59;5.65;;;1.70;;
1436;SDS011;712;51.026;13.792;2023-07-30T08:32:24;4.30;;;2.10;;
1436;SDS011;712;51.026;13.792;2023-07-30T08:34:49;8.63;;;2.63;;
1436;SDS011;712;51.026;13.792;2023-07-30T08:37:15;3.80;;;1.77;;
1436;SDS011;712;51.026;13.792;2023-07-30T08:39:40;3.30;;;1.50;;
1436;SDS011;712;51.026;13.792;2023-07-30T08:42:05;4.10;;;1.70;;
1436;SDS011;712;51.026;13.792;2023-07-30T08:44:30;3.47;;;1.77;;
1436;SDS011;712;51.026;13.792;2023-07-30T08:46:55;5.50;;;1.60;;
1436;SDS011;712;51.026;13.792;2023-07-30T08:49:21;3.60;;;1.60;;
1436;SDS011;712;51.026;13.792;2023-07-30T08:51:46;3.60;;;1.57;;
1436;SDS011;712;51.026;13.792;2023-07-30T08:54:13;4.28;;;1.80;;
1436;SDS011;712;51.026;13.792;2023-07-30T08:56:39;4.00;;;1.50;;
1436;SDS011;712;51.026;13.792;2023-07-30T08:59:04;4.22;;;1.60;;
1436;SDS011;712;51.026;13.792;2023-07-30T09:01:30;4.15;;;1.52;;
1436;SDS011;712;51.026;13.792;2023-07-30T09:03:59;3.20;;;1.52;;
1436;SDS011;712;51.026;13.792;2023-07-30T09:06:28;2.88;;;1.23;;
1436;SDS011;712;51.026;13.792;2023-07-30T09:08:53;4.77;;;1.53;;
1436;SDS011;712;51.026;13.792;2023-07-30T09:11:18;3.50;;;1.40;;
1436;SDS011;712;51.026;13.792;2023-07-30T09:13:43;3.50;;;1.63;;
1436;SDS011;712;51.026;13.792;2023-07-30T09:16:12;4.10;;;1.50;;
1436;SDS011;712;51.026;13.792;2023-07-30T09:18:41;3.92;;;1.75;;
1436;SDS011;712;51.026;13.792;2023-07-30T09:21:07;4.00;;;1.50;;
1436;SDS011;712;51.026;13.792;2023-07-30T09:23:32;4.10;;;1.40;;
1436;SDS011;712;51.026;13.792;2023-07-30T09:26:03;4.20;;;1.73;;
1436;SDS011;712;51.026;13.792;2023-07-30T09:28:31;3.95;;;1.50;;
1436;SDS011;712;51.026;13.792;2023-07-30T09:31:00;4.30;;;1.42;;
1436;SDS011;712;51.026;13.792;2023-07-30T09:33:26;4.50;;;1.50;;
1436;SDS011;712;51.026;13.792;2023-07-30T09:38:18;3.75;;;1.48;;
1436;SDS011;712;51.026;13.792;2023-07-30T09:40:44;3.78;;;1.50;;
1436;SDS011;712;51.026;13.792;2023-07-30T09:43:10;3.35;;;1.40;;
1436;SDS011;712;51.026;13.792;2023-07-30T09:45:36;3.15;;;1.40;;
1436;SDS011;712;51.026;13.792;2023-07-30T09:50:26;3.78;;;1.48;;
1436;SDS011;712;51.026;13.792;2023-07-30T09:52:51;3.50;;;1.50;;
1436;SDS011;712;51.026;13.792;2023-07-30T09:55:17;7.03;;;4.05;;
1436;SDS011;712;51.026;13.792;2023-07-30T09:57:44;6.28;;;3.60;;
1436;SDS011;712;51.026;13.792;2023-07-30T10:00:09;4.10;;;2.00;;
1436;SDS011;712;51.026;13.792;2023-07-30T10:02:39;4.22;;;1.60;;
1436;SDS011;712;51.026;13.792;2023-07-30T10:05:10;3.42;;;1.60;;
1436;SDS011;712;51.026;13.792;2023-07-30T10:07:37;3.80;;;1.70;;
1436;SDS011;712;51.026;13.792;2023-07-30T10:10:03;4.65;;;1.80;;
1436;SDS011;712;51.026;13.792;2023-07-30T10:12:31;4.10;;;1.95;;
1436;SDS011;712;51.026;13.792;2023-07-30T10:14:57;3.60;;;1.80;;
1436;SDS011;712;51.026;13.792;2023-07-30T10:17:22;4.60;;;2.10;;
1436;SDS011;712;51.026;13.792;2023-07-30T10:24:59;3.83;;;1.95;;
1436;SDS011;712;51.026;13.792;2023-07-30T10:27:27;3.55;;;1.77;;
1436;SDS011;712;51.026;13.792;2023-07-30T10:32:40;4.90;;;2.13;;
1436;SDS011;712;51.026;13.792;2023-07-30T10:35:06;4.45;;;2.00;;
1436;SDS011;712;51.026;13.792;2023-07-30T10:37:31;3.83;;;1.87;;
1436;SDS011;712;51.026;13.792;2023-07-30T10:42:21;4.03;;;2.00;;
1436;SDS011;712;51.026;13.792;2023-07-30T10:47:12;6.43;;;1.80;;
1436;SDS011;712;51.026;13.792;2023-07-30T10:49:37;3.90;;;1.83;;
1436;SDS011;712;51.026;13.792;2023-07-30T10:54:32;3.80;;;1.60;;
1436;SDS011;712;51.026;13.792;2023-07-30T10:56:57;5.07;;;1.90;;
1436;SDS011;712;51.026;13.792;2023-07-30T10:59:23;3.50;;;1.60;;
1436;SDS011;712;51.026;13.792;2023-07-30T11:01:48;4.60;;;1.70;;
1436;SDS011;712;51.026;13.792;2023-07-30T11:04:14;4.20;;;1.80;;
1436;SDS011;712;51.026;13.792;2023-07-30T11:06:40;3.70;;;1.60;;
1436;SDS011;712;51.026;13.792;2023-07-30T11:09:17;4.35;;;1.70;;
1436;SDS011;712;51.026;13.792;2023-07-30T11:11:43;3.90;;;1.50;;
1436;SDS011;712;51.026;13.792;2023-07-30T11:14:08;3.90;;;1.70;;
1436;SDS011;712;51.026;13.792;2023-07-30T11:16:39;3.63;;;1.70;;
1436;SDS011;712;51.026;13.792;2023-07-30T11:19:11;4.82;;;1.60;;
1436;SDS011;712;51.026;13.792;2023-07-30T11:21:43;4.30;;;1.63;;
1436;SDS011;712;51.026;13.792;2023-07-30T11:24:09;5.70;;;1.65;;
1436;SDS011;712;51.026;13.792;2023-07-30T11:28:59;5.53;;;1.70;;
1436;SDS011;712;51.026;13.792;2023-07-30T11:31:24;3.03;;;1.33;;
1436;SDS011;712;51.026;13.792;2023-07-30T11:33:52;3.60;;;1.55;;
1436;SDS011;712;51.026;13.792;2023-07-30T11:36:24;2.95;;;1.27;;
1436;SDS011;712;51.026;13.792;2023-07-30T11:38:49;2.83;;;1.10;;
1436;SDS011;712;51.026;13.792;2023-07-30T11:41:17;2.50;;;1.10;;
1436;SDS011;712;51.026;13.792;2023-07-30T11:43:43;2.83;;;1.17;;
1436;SDS011;712;51.026;13.792;2023-07-30T11:46:09;2.65;;;1.00;;
1436;SDS011;712;51.026;13.792;2023-07-30T11:48:35;2.50;;;1.00;;
1436;SDS011;712;51.026;13.792;2023-07-30T11:51:00;3.22;;;0.98;;
1436;SDS011;712;51.026;13.792;2023-07-30T11:53:45;2.57;;;1.10;;
1436;SDS011;712;51.026;13.792;2023-07-30T11:56:17;2.58;;;1.08;;
1436;SDS011;712;51.026;13.792;2023-07-30T11:58:43;2.65;;;0.90;;
1436;SDS011;712;51.026;13.792;2023-07-30T12:03:34;2.90;;;0.70;;
1436;SDS011;712;51.026;13.792;2023-07-30T12:05:59;2.33;;;0.87;;
1436;SDS011;712;51.026;13.792;2023-07-30T12:08:29;7.03;;;1.10;;
1436;SDS011;712;51.026;13.792;2023-07-30T12:13:20;3.03;;;1.10;;
1436;SDS011;712;51.026;13.792;2023-07-30T12:18:11;2.28;;;0.90;;
1436;SDS011;712;51.026;13.792;2023-07-30T12:20:36;1.87;;;0.87;;
1436;SDS011;712;51.026;13.792;2023-07-30T12:25:28;3.83;;;0.90;;
1436;SDS011;712;51.026;13.792;2023-07-30T12:30:18;2.25;;;0.90;;
1436;SDS011;712;51.026;13.792;2023-07-30T12:32:43;2.25;;;1.00;;
1436;SDS011;712;51.026;13.792;2023-07-30T12:37:34;3.15;;;1.00;;
1436;SDS011;712;51.026;13.792;2023-07-30T12:40:00;3.72;;;1.10;;
1436;SDS011;712;51.026;13.792;2023-07-30T12:44:50;2.30;;;0.80;;
1436;SDS011;712;51.026;13.792;2023-07-30T12:47:15;2.20;;;0.90;;
1436;SDS011;712;51.026;13.792;2023-07-30T12:49:40;2.03;;;0.80;;
1436;SDS011;712;51.026;13.792;2023-07-30T12:52:06;3.23;;;0.87;;
1436;SDS011;712;51.026;13.792;2023-07-30T12:54:31;2.37;;;1.00;;
1436;SDS011;712;51.026;13.792;2023-07-30T12:59:21;2.38;;;1.10;;
1436;SDS011;712;51.026;13.792;2023-07-30T13:04:11;3.53;;;1.20;;
1436;SDS011;712;51.026;13.792;2023-07-30T13:09:02;2.88;;;0.80;;
1436;SDS011;712;51.026;13.792;2023-07-30T13:13:52;2.92;;;1.13;;
1436;SDS011;712;51.026;13.792;2023-07-30T13:18:42;2.85;;;1.02;;
1436;SDS011;712;51.026;13.792;2023-07-30T13:21:07;2.50;;;0.95;;
1436;SDS011;712;51.026;13.792;2023-07-30T13:25:57;3.15;;;1.10;;
1436;SDS011;712;51.026;13.792;2023-07-30T13:30:48;2.47;;;0.90;;
1436;SDS011;712;51.026;13.792;2023-07-30T13:33:15;2.20;;;0.90;;
1436;SDS011;712;51.026;13.792;2023-07-30T13:38:05;3.83;;;0.90;;
1436;SDS011;712;51.026;13.792;2023-07-30T13:42:56;2.50;;;0.90;;
1436;SDS011;712;51.026;13.792;2023-07-30T13:47:46;2.83;;;0.90;;
1436;SDS011;712;51.026;13.792;2023-07-30T13:50:11;2.10;;;0.82;;
1436;SDS011;712;51.026;13.792;2023-07-30T13:52:36;2.37;;;0.87;;
1436;SDS011;712;51.026;13.792;2023-07-30T13:57:27;2.92;;;1.10;;
1436;SDS011;712;51.026;13.792;2023-07-30T14:02:17;3.30;;;1.13;;
1436;SDS011;712;51.026;13.792;2023-07-30T14:07:07;3.33;;;0.90;;
1436;SDS011;712;51.026;13.792;2023-07-30T14:12:00;2.10;;;0.80;;
1436;SDS011;712;51.026;13.792;2023-07-30T14:16:52;3.53;;;1.20;;
1436;SDS011;712;51.026;13.792;2023-07-30T14:21:42;1.83;;;0.73;;
1436;SDS011;712;51.026;13.792;2023-07-30T14:26:33;2.55;;;0.82;;
1436;SDS011;712;51.026;13.792;2023-07-30T14:31:24;2.30;;;0.93;;
1436;SDS011;712;51.026;13.792;2023-07-30T14:36:14;3.47;;;1.20;;
1436;SDS011;712;51.026;13.792;2023-07-30T14:41:04;2.65;;;0.90;;
1436;SDS011;712;51.026;13.792;2023-07-30T14:43:30;2.47;;;1.00;;
1436;SDS011;712;51.026;13.792;2023-07-30T14:48:21;3.50;;;1.30;;
1436;SDS011;712;51.026;13.792;2023-07-30T14:53:12;2.75;;;1.10;;
1436;SDS011;712;51.026;13.792;2023-07-30T14:58:02;3.58;;;1.02;;
1436;SDS011;712;51.026;13.792;2023-07-30T15:00:28;2.90;;;1.10;;
1436;SDS011;712;51.026;13.792;2023-07-30T15:05:19;2.38;;;0.90;;
1436;SDS011;712;51.026;13.792;2023-07-30T15:07:44;2.33;;;1.10;;
1436;SDS011;712;51.026;13.792;2023-07-30T15:12:35;2.50;;;0.90;;
1436;SDS011;712;51.026;13.792;2023-07-30T15:17:25;2.97;;;1.00;;
1436;SDS011;712;51.026;13.792;2023-07-30T15:19:50;5.40;;;1.30;;
1436;SDS011;712;51.026;13.792;2023-07-30T15:22:17;3.95;;;1.17;;
1436;SDS011;712;51.026;13.792;2023-07-30T15:24:42;2.93;;;1.23;;
1436;SDS011;712;51.026;13.792;2023-07-30T15:27:07;3.63;;;1.17;;
1436;SDS011;712;51.026;13.792;2023-07-30T15:29:32;3.37;;;1.30;;
1436;SDS011;712;51.026;13.792;2023-07-30T15:31:58;7.53;;;1.63;;
1436;SDS011;712;51.026;13.792;2023-07-30T15:34:23;5.27;;;1.50;;
1436;SDS011;712;51.026;13.792;2023-07-30T15:36:48;5.87;;;1.37;;
1436;SDS011;712;51.026;13.792;2023-07-30T15:39:13;3.88;;;1.10;;
1436;SDS011;712;51.026;13.792;2023-07-30T15:41:38;3.73;;;1.20;;
1436;SDS011;712;51.026;13.792;2023-07-30T15:44:04;3.35;;;1.30;;
1436;SDS011;712;51.026;13.792;2023-07-30T15:46:29;6.63;;;1.60;;
1436;SDS011;712;51.026;13.792;2023-07-30T15:48:54;4.10;;;1.30;;
1436;SDS011;712;51.026;13.792;2023-07-30T15:51:19;3.73;;;1.07;;
1436;SDS011;712;51.026;13.792;2023-07-30T15:53:45;3.53;;;1.20;;
1436;SDS011;712;51.026;13.792;2023-07-30T15:56:10;3.57;;;1.00;;
1436;SDS011;712;51.026;13.792;2023-07-30T15:58:35;3.70;;;1.20;;
1436;SDS011;712;51.026;13.792;2023-07-30T16:01:07;3.30;;;1.13;;
1436;SDS011;712;51.026;13.792;2023-07-30T16:03:34;6.38;;;1.42;;
1436;SDS011;712;51.026;13.792;2023-07-30T16:06:03;4.90;;;1.50;;
1436;SDS011;712;51.026;13.792;2023-07-30T16:08:29;3.17;;;1.38;;
1436;SDS011;712;51.026;13.792;2023-07-30T16:11:04;3.70;;;1.60;;
1436;SDS011;712;51.026;13.792;2023-07-30T16:13:29;6.55;;;1.60;;
1436;SDS011;712;51.026;13.792;2023-07-30T16:15:55;4.20;;;1.73;;
1436;SDS011;712;51.026;13.792;2023-07-30T16:18:20;4.85;;;1.60;;
1436;SDS011;712;51.026;13.792;2023-07-30T16:20:45;6.37;;;1.60;;
1436;SDS011;712;51.026;13.792;2023-07-30T16:23:10;5.00;;;1.40;;
1436;SDS011;712;51.026;13.792;2023-07-30T16:25:36;6.43;;;1.43;;
1436;SDS011;712;51.026;13.792;2023-07-30T16:28:01;4.43;;;1.60;;
1436;SDS011;712;51.026;13.792;2023-07-30T16:30:26;4.10;;;1.50;;
1436;SDS011;712;51.026;13.792;2023-07-30T16:32:51;5.50;;;1.60;;
1436;SDS011;712;51.026;13.792;2023-07-30T16:35:16;4.83;;;1.70;;
1436;SDS011;712;51.026;13.792;2023-07-30T16:37:43;3.92;;;1.65;;
1436;SDS011;712;51.026;13.792;2023-07-30T16:40:09;4.75;;;1.60;;
1436;SDS011;712;51.026;13.792;2023-07-30T16:42:34;4.45;;;1.60;;
1436;SDS011;712;51.026;13.792;2023-07-30T16:44:59;4.63;;;1.60;;
1436;SDS011;712;51.026;13.792;2023-07-30T16:47:24;5.28;;;1.70;;
1436;SDS011;712;51.026;13.792;2023-07-30T16:49:50;4.35;;;1.70;;